Time;durP1;ratioP1;P1;durP2;ratioP2;P2;SDS_P1;SDS_P2;PMS_P1;PMS_P2;Temp;Humidity;BMP_temperature;BMP_pressure;BME280_temperature;BME280_humidity;BME280_pressure;Samples;Min_cycle;Max_cycle;Signal;HPM_P1;HPM_P2
2022/09/11 00:01:32;;;;;;;2.90;1.37;;;21.30;88.80;;;;;;5057231;28;20208;-73
2022/09/11 00:03:59;;;;;;;3.37;1.40;;;21.30;88.40;;;;;;5057758;28;20183;-73
2022/09/11 00:06:27;;;;;;;1.57;1.30;;;21.40;87.90;;;;;;5066854;28;20269;-72
2022/09/11 00:08:59;;;;;;;1.80;1.50;;;21.40;88.70;;;;;;5065711;28;20189;-72
2022/09/11 00:11:29;;;;;;;3.13;1.60;;;21.30;87.80;;;;;;5051156;28;20210;-73
2022/09/11 00:13:57;;;;;;;2.73;1.50;;;21.30;88.00;;;;;;5066738;28;20215;-72
2022/09/11 00:16:27;;;;;;;2.13;1.43;;;21.30;88.20;;;;;;5050925;28;20599;-72
2022/09/11 00:18:58;;;;;;;2.33;1.20;;;21.30;88.00;;;;;;5061984;28;20801;-72
2022/09/11 00:21:26;;;;;;;3.47;1.57;;;21.30;87.10;;;;;;5069899;28;20222;-72
2022/09/11 00:23:54;;;;;;;2.93;1.50;;;21.30;86.80;;;;;;5065398;28;20620;-72
2022/09/11 00:26:21;;;;;;;1.77;1.40;;;21.30;87.60;;;;;;5070335;28;20722;-72
2022/09/11 00:28:49;;;;;;;1.93;1.30;;;21.20;86.80;;;;;;5067620;28;20187;-71
2022/09/11 00:31:26;;;;;;;2.00;1.40;;;21.20;87.70;;;;;;5061364;28;20215;-73
2022/09/11 00:33:54;;;;;;;2.37;1.60;;;21.20;87.90;;;;;;5065132;28;20199;-72
2022/09/11 00:36:24;;;;;;;1.40;1.30;;;21.10;87.30;;;;;;5050843;28;20186;-72
2022/09/11 00:38:52;;;;;;;2.27;1.40;;;21.10;87.50;;;;;;5067435;28;20206;-72
2022/09/11 00:41:35;;;;;;;4.80;1.70;;;21.00;86.90;;;;;;5067186;28;20838;-72
2022/09/11 00:44:27;;;;;;;1.40;1.20;;;21.00;87.20;;;;;;5064945;28;20210;-72
2022/09/11 00:47:04;;;;;;;3.70;1.47;;;21.00;86.20;;;;;;5032626;28;20195;-72
2022/09/11 00:49:54;;;;;;;3.13;1.40;;;21.00;86.50;;;;;;5060414;28;20213;-72
2022/09/11 00:52:29;;;;;;;2.43;1.40;;;20.90;85.50;;;;;;5067383;28;20207;-72
2022/09/11 00:55:13;;;;;;;1.50;1.27;;;20.90;85.70;;;;;;5059384;28;20247;-72
2022/09/11 00:58:00;;;;;;;5.30;1.40;;;20.90;86.00;;;;;;5070795;28;20178;-72
2022/09/11 01:00:27;;;;;;;2.40;1.20;;;20.90;86.20;;;;;;5052470;28;20194;-72
2022/09/11 01:02:55;;;;;;;1.97;1.20;;;20.90;86.10;;;;;;5068472;28;20317;-72
2022/09/11 01:05:26;;;;;;;2.93;1.47;;;20.80;85.80;;;;;;5049996;28;20191;-72
2022/09/11 01:07:55;;;;;;;2.83;1.30;;;20.80;86.40;;;;;;5068147;28;20625;-72
2022/09/11 01:10:48;;;;;;;2.63;1.30;;;20.70;86.10;;;;;;5069703;28;20183;-72
2022/09/11 01:13:30;;;;;;;3.47;1.80;;;20.70;86.10;;;;;;5050843;28;20215;-73
2022/09/11 01:16:04;;;;;;;2.13;1.60;;;20.70;85.80;;;;;;5077557;28;20183;-72
2022/09/11 01:19:20;;;;;;;2.27;1.50;;;20.70;86.40;;;;;;5062302;28;20273;-72
2022/09/11 01:21:55;;;;;;;4.13;1.50;;;20.60;85.90;;;;;;5080155;28;20183;-72
2022/09/11 01:24:51;;;;;;;2.43;1.50;;;20.60;85.60;;;;;;5069613;28;20261;-73
2022/09/11 01:28:12;;;;;;;3.43;1.40;;;20.60;85.60;;;;;;5051477;28;20703;-73
2022/09/11 01:30:54;;;;;;;6.43;1.60;;;20.50;85.60;;;;;;5028543;28;20664;-73
2022/09/11 01:33:44;;;;;;;3.63;1.37;;;20.50;85.40;;;;;;5063106;28;20237;-72
2022/09/11 01:36:33;;;;;;;2.57;1.37;;;20.50;86.20;;;;;;5050814;28;20662;-72
2022/09/11 01:39:03;;;;;;;2.33;1.60;;;20.50;86.20;;;;;;5067255;28;20205;-72
2022/09/11 01:41:43;;;;;;;1.70;1.30;;;20.50;85.90;;;;;;5050825;28;20236;-72
2022/09/11 01:44:16;;;;;;;2.60;1.40;;;20.50;85.60;;;;;;5067648;28;20269;-72
2022/09/11 01:46:50;;;;;;;2.80;1.70;;;20.40;85.30;;;;;;5066465;28;20279;-73
2022/09/11 01:49:42;;;;;;;2.17;1.50;;;20.40;85.20;;;;;;5072451;28;20560;-72
2022/09/11 01:52:17;;;;;;;4.63;1.60;;;20.40;85.90;;;;;;5048860;28;20203;-72
2022/09/11 01:55:19;;;;;;;3.00;1.37;;;20.40;85.30;;;;;;5064225;28;20644;-73
2022/09/11 01:58:02;;;;;;;1.77;1.40;;;20.40;84.80;;;;;;5042037;28;20521;-73
2022/09/11 02:00:34;;;;;;;3.10;1.33;;;20.50;84.30;;;;;;5063819;28;20279;-72
2022/09/11 02:03:13;;;;;;;3.43;1.57;;;20.50;84.20;;;;;;5068685;28;20194;-73
2022/09/11 02:05:57;;;;;;;4.57;1.30;;;20.60;83.90;;;;;;5067112;28;20187;-72
2022/09/11 02:08:55;;;;;;;1.73;1.30;;;20.60;83.80;;;;;;5068430;28;20231;-73
2022/09/11 02:11:22;;;;;;;2.77;1.40;;;20.60;83.90;;;;;;5067663;28;20242;-72
2022/09/11 02:13:48;;;;;;;2.83;1.47;;;20.70;84.10;;;;;;5067445;28;20213;-72
2022/09/11 02:16:45;;;;;;;2.20;1.40;;;20.60;84.30;;;;;;5065591;28;20214;-72
2022/09/11 02:19:16;;;;;;;1.53;1.20;;;20.70;84.20;;;;;;5046765;28;20218;-72
2022/09/11 02:21:49;;;;;;;1.53;1.30;;;20.70;84.00;;;;;;5073920;28;20215;-72
2022/09/11 02:24:17;;;;;;;1.87;1.10;;;20.70;84.60;;;;;;5076180;28;20186;-72
2022/09/11 02:26:54;;;;;;;1.80;1.30;;;20.70;85.20;;;;;;5067607;28;20184;-72
2022/09/11 02:29:21;;;;;;;4.90;1.30;;;20.70;85.10;;;;;;5054315;28;20217;-72
2022/09/11 02:31:51;;;;;;;3.17;1.43;;;20.80;85.60;;;;;;5070956;28;20245;-72
2022/09/11 02:34:28;;;;;;;2.00;1.27;;;20.80;85.30;;;;;;5071501;28;20265;-72
2022/09/11 02:37:21;;;;;;;2.60;1.30;;;20.80;84.90;;;;;;5072559;28;20252;-72
2022/09/11 02:40:06;;;;;;;1.93;1.13;;;20.90;84.80;;;;;;5066082;28;20201;-72
2022/09/11 02:43:19;;;;;;;4.23;1.60;;;20.90;84.70;;;;;;5059365;28;20262;-72
2022/09/11 02:46:18;;;;;;;2.33;1.30;;;20.90;84.70;;;;;;5070756;28;20640;-73
2022/09/11 02:49:19;;;;;;;4.87;1.40;;;20.90;83.00;;;;;;5070805;28;20183;-72
2022/09/11 02:52:17;;;;;;;3.50;1.27;;;21.00;83.10;;;;;;5064064;28;20683;-72
2022/09/11 02:55:15;;;;;;;4.33;1.40;;;20.90;84.20;;;;;;5067744;28;20183;-72
2022/09/11 02:58:20;;;;;;;1.57;1.20;;;20.90;84.40;;;;;;5070781;28;20279;-72
2022/09/11 03:00:47;;;;;;;4.00;1.30;;;20.80;83.90;;;;;;5070448;28;20175;-72
2022/09/11 03:03:14;;;;;;;4.37;1.30;;;20.70;83.30;;;;;;5054034;28;20186;-72
2022/09/11 03:05:42;;;;;;;1.93;1.30;;;20.70;83.10;;;;;;5070865;28;20167;-72
2022/09/11 03:08:09;;;;;;;1.83;1.00;;;20.60;83.40;;;;;;5070173;28;20175;-72
2022/09/11 03:10:37;;;;;;;4.10;1.27;;;20.50;83.00;;;;;;5052990;28;20274;-73
2022/09/11 03:13:03;;;;;;;1.97;1.37;;;20.50;83.00;;;;;;5054012;28;20218;-72
2022/09/11 03:15:32;;;;;;;1.70;1.20;;;20.50;83.40;;;;;;5070283;28;20187;-72
2022/09/11 03:17:59;;;;;;;1.43;1.17;;;20.50;83.40;;;;;;5070118;28;20297;-72
2022/09/11 03:20:26;;;;;;;1.73;1.10;;;20.50;83.20;;;;;;5053768;28;20218;-72
2022/09/11 03:22:52;;;;;;;1.80;1.10;;;20.50;83.40;;;;;;5043888;28;20183;-72
2022/09/11 03:25:19;;;;;;;1.70;0.90;;;20.50;83.20;;;;;;5069276;28;20179;-72
2022/09/11 03:27:46;;;;;;;2.90;1.40;;;20.50;82.80;;;;;;5070539;28;20573;-72
2022/09/11 03:30:13;;;;;;;3.97;1.20;;;20.50;82.80;;;;;;5049473;28;20214;-72
2022/09/11 03:32:39;;;;;;;2.40;1.30;;;20.50;82.50;;;;;;5065306;28;20293;-72
2022/09/11 03:35:06;;;;;;;3.43;1.13;;;20.50;82.40;;;;;;5070014;28;20233;-72
2022/09/11 03:37:32;;;;;;;2.53;1.20;;;20.50;82.40;;;;;;5052519;28;20187;-72
2022/09/11 03:40:00;;;;;;;5.43;1.17;;;20.40;82.80;;;;;;5053083;28;20241;-72
2022/09/11 03:42:27;;;;;;;1.53;1.10;;;20.50;82.70;;;;;;5070652;28;20197;-72
2022/09/11 03:44:53;;;;;;;1.63;1.10;;;20.50;82.30;;;;;;5069580;28;20236;-72
2022/09/11 03:47:23;;;;;;;2.60;1.30;;;20.50;82.30;;;;;;5053543;28;20179;-72
2022/09/11 03:49:50;;;;;;;1.50;1.17;;;20.40;82.60;;;;;;5069499;28;20187;-72
2022/09/11 03:52:16;;;;;;;4.07;1.30;;;20.40;82.70;;;;;;5066638;28;20571;-72
2022/09/11 03:54:43;;;;;;;6.07;1.53;;;20.50;82.80;;;;;;5047988;28;20254;-72
2022/09/11 03:57:09;;;;;;;4.80;1.30;;;20.40;82.80;;;;;;5053654;28;20248;-73
2022/09/11 03:59:36;;;;;;;4.07;1.37;;;20.50;83.30;;;;;;5069105;28;20594;-73
2022/09/11 04:02:02;;;;;;;1.37;1.13;;;20.50;83.40;;;;;;5068756;28;20183;-72
2022/09/11 04:04:28;;;;;;;3.53;1.30;;;20.50;83.70;;;;;;5066586;28;20178;-72
2022/09/11 04:06:55;;;;;;;1.30;1.10;;;20.60;83.80;;;;;;5050106;28;20188;-72
2022/09/11 04:09:21;;;;;;;1.33;1.13;;;20.60;83.80;;;;;;5066179;28;20244;-72
2022/09/11 04:11:48;;;;;;;2.93;1.20;;;20.60;84.30;;;;;;5058538;28;20202;-72
2022/09/11 04:14:14;;;;;;;4.53;1.33;;;20.60;83.90;;;;;;5068479;28;20186;-72
2022/09/11 04:16:41;;;;;;;4.63;1.30;;;20.60;84.50;;;;;;5070187;28;20190;-72
2022/09/11 04:19:11;;;;;;;1.50;1.10;;;20.60;84.10;;;;;;5069026;28;20297;-72
2022/09/11 04:21:38;;;;;;;3.27;1.30;;;20.60;84.10;;;;;;5070277;28;20187;-72
2022/09/11 04:24:04;;;;;;;1.37;1.10;;;20.60;84.10;;;;;;5064412;28;20274;-72
2022/09/11 04:26:32;;;;;;;4.83;1.30;;;20.70;84.30;;;;;;5082663;28;20265;-72
2022/09/11 04:29:00;;;;;;;6.57;1.40;;;20.70;84.30;;;;;;5068302;28;20532;-72
2022/09/11 04:31:27;;;;;;;3.73;1.30;;;20.80;84.70;;;;;;5065501;28;20215;-72
2022/09/11 04:33:54;;;;;;;2.47;1.30;;;20.80;84.70;;;;;;5050528;28;20172;-73
2022/09/11 04:36:21;;;;;;;4.40;1.50;;;20.90;84.70;;;;;;5068347;28;20618;-72
2022/09/11 04:38:54;;;;;;;1.93;1.30;;;21.00;85.30;;;;;;5049259;28;20190;-72
2022/09/11 04:41:21;;;;;;;3.83;1.50;;;21.00;85.90;;;;;;5050511;28;20229;-72
2022/09/11 04:43:48;;;;;;;2.00;1.30;;;21.10;86.50;;;;;;5084412;28;20212;-72
2022/09/11 04:46:17;;;;;;;4.47;1.30;;;21.20;87.10;;;;;;5068139;28;20187;-72
2022/09/11 04:48:51;;;;;;;5.73;1.30;;;21.30;87.50;;;;;;5068683;28;20814;-72
2022/09/11 04:51:35;;;;;;;1.50;1.10;;;21.40;88.00;;;;;;5068302;28;20244;-73
2022/09/11 04:54:03;;;;;;;4.23;1.23;;;21.50;88.40;;;;;;5066483;28;20702;-72
2022/09/11 04:56:33;;;;;;;1.83;1.30;;;21.60;88.30;;;;;;5053844;28;20566;-72
2022/09/11 04:59:12;;;;;;;3.43;1.40;;;21.70;88.30;;;;;;5065225;28;20641;-72
2022/09/11 05:01:39;;;;;;;3.37;1.30;;;21.80;89.00;;;;;;5063011;28;20301;-72
2022/09/11 05:04:12;;;;;;;3.17;1.40;;;21.90;90.10;;;;;;5085728;28;20261;-72
2022/09/11 05:06:39;;;;;;;3.80;1.27;;;22.00;90.40;;;;;;5050104;28;20194;-72
2022/09/11 05:09:09;;;;;;;2.47;1.30;;;22.20;90.60;;;;;;5048381;28;20191;-72
2022/09/11 05:11:40;;;;;;;1.27;1.10;;;22.20;90.60;;;;;;5065651;28;20657;-73
2022/09/11 05:14:07;;;;;;;2.17;1.37;;;22.30;91.00;;;;;;5051521;28;20191;-72
2022/09/11 05:16:35;;;;;;;2.03;1.20;;;22.30;91.30;;;;;;5067660;28;20182;-72
2022/09/11 05:19:03;;;;;;;2.13;1.00;;;22.30;91.60;;;;;;5051232;28;20171;-72
2022/09/11 05:21:31;;;;;;;5.53;1.47;;;22.30;91.70;;;;;;5069675;28;20178;-72
2022/09/11 05:24:01;;;;;;;1.40;1.15;;;22.40;91.80;;;;;;5072159;28;20187;-72
2022/09/11 05:26:33;;;;;;;6.13;1.20;;;22.40;92.10;;;;;;5055299;28;20273;-72
2022/09/11 05:29:06;;;;;;;2.63;1.43;;;22.50;91.60;;;;;;5049446;28;20656;-72
2022/09/11 05:31:32;;;;;;;1.55;1.10;;;22.60;91.60;;;;;;5068011;28;20198;-72
2022/09/11 05:34:00;;;;;;;4.30;1.30;;;22.70;91.80;;;;;;5069832;28;20258;-74
2022/09/11 05:36:29;;;;;;;4.90;1.50;;;22.70;91.60;;;;;;5068090;28;20186;-73
2022/09/11 05:38:56;;;;;;;5.05;1.25;;;22.80;90.90;;;;;;5067664;28;20259;-72
2022/09/11 05:41:23;;;;;;;3.70;1.27;;;22.90;90.00;;;;;;5050356;28;20187;-74
2022/09/11 05:43:50;;;;;;;1.52;1.30;;;23.00;88.60;;;;;;5067461;28;20281;-74
2022/09/11 05:46:18;;;;;;;4.23;1.30;;;23.00;88.70;;;;;;5051139;28;20183;-74
2022/09/11 05:48:46;;;;;;;2.00;1.08;;;23.00;89.10;;;;;;5069169;28;20249;-74
2022/09/11 05:51:17;;;;;;;2.95;1.30;;;23.10;88.60;;;;;;5069503;28;20179;-74
2022/09/11 05:53:45;;;;;;;4.65;1.30;;;23.20;88.20;;;;;;5067420;28;20171;-72
2022/09/11 05:56:19;;;;;;;1.67;1.38;;;23.20;86.40;;;;;;5063340;28;20188;-74
2022/09/11 05:58:48;;;;;;;3.88;1.58;;;23.30;87.20;;;;;;5046427;28;20544;-74
2022/09/11 06:01:18;;;;;;;1.30;1.20;;;23.30;88.20;;;;;;5068368;28;20190;-74
2022/09/11 06:03:48;;;;;;;4.93;1.40;;;23.30;88.10;;;;;;5069193;28;20181;-74
2022/09/11 06:06:17;;;;;;;2.45;1.45;;;23.40;88.70;;;;;;5067107;28;20285;-72
2022/09/11 06:08:45;;;;;;;3.60;1.55;;;23.50;89.70;;;;;;5067261;28;20189;-74
2022/09/11 06:11:15;;;;;;;6.43;1.33;;;23.60;89.10;;;;;;5067869;28;20282;-74
2022/09/11 06:13:46;;;;;;;3.53;1.35;;;23.60;89.00;;;;;;5069225;28;20209;-72
2022/09/11 06:16:23;;;;;;;3.28;2.13;;;23.70;88.00;;;;;;5068756;28;20171;-74
2022/09/11 06:18:53;;;;;;;2.75;1.20;;;23.70;89.00;;;;;;5066157;28;20175;-72
2022/09/11 06:21:22;;;;;;;1.35;1.13;;;23.70;88.90;;;;;;5050744;28;20530;-74
2022/09/11 06:23:51;;;;;;;2.22;1.10;;;23.80;88.00;;;;;;5050916;28;20226;-74
2022/09/11 06:26:22;;;;;;;1.65;1.20;;;23.90;87.00;;;;;;5067175;28;20182;-74
2022/09/11 06:28:49;;;;;;;2.10;1.25;;;24.10;87.50;;;;;;5059675;28;20214;-74
2022/09/11 06:31:21;;;;;;;2.92;1.20;;;24.10;89.40;;;;;;5067136;28;20213;-72
2022/09/11 06:33:49;;;;;;;2.45;1.20;;;24.10;88.00;;;;;;5050724;28;20305;-74
2022/09/11 06:36:22;;;;;;;4.43;1.50;;;24.20;87.40;;;;;;5067292;28;20278;-72
2022/09/11 06:38:58;;;;;;;5.03;1.20;;;24.30;87.10;;;;;;5068247;28;20191;-75
2022/09/11 06:41:27;;;;;;;3.83;1.33;;;24.40;86.00;;;;;;5049072;28;20186;-74
2022/09/11 06:43:54;;;;;;;2.50;1.58;;;24.50;88.00;;;;;;5082456;28;20191;-72
2022/09/11 06:46:23;;;;;;;2.97;1.60;;;24.60;87.00;;;;;;5050254;28;20178;-74
2022/09/11 06:48:51;;;;;;;1.42;1.17;;;24.70;87.10;;;;;;5066922;28;20244;-74
2022/09/11 06:51:22;;;;;;;1.95;1.35;;;24.80;86.50;;;;;;5068783;28;20179;-72
2022/09/11 06:53:54;;;;;;;3.60;1.70;;;24.90;84.90;;;;;;5050641;28;20182;-74
2022/09/11 06:56:26;;;;;;;2.92;1.50;;;25.00;84.80;;;;;;5067119;28;20198;-73
2022/09/11 06:58:52;;;;;;;2.38;1.27;;;25.10;83.80;;;;;;5061386;28;20262;-72
2022/09/11 07:01:21;;;;;;;2.67;1.45;;;25.20;84.10;;;;;;5043613;28;20242;-72
2022/09/11 07:03:52;;;;;;;2.15;1.38;;;25.20;84.20;;;;;;5051625;28;20753;-72
2022/09/11 07:06:26;;;;;;;4.45;1.80;;;25.30;83.90;;;;;;5050402;28;20549;-72
2022/09/11 07:09:00;;;;;;;4.45;1.75;;;25.40;85.50;;;;;;5081630;28;20194;-72
2022/09/11 07:11:32;;;;;;;5.32;2.20;;;25.50;87.00;;;;;;5067587;28;20568;-72
2022/09/11 07:14:01;;;;;;;2.78;2.00;;;25.70;89.60;;;;;;5069708;28;20237;-71
2022/09/11 07:16:28;;;;;;;4.32;2.13;;;26.00;90.20;;;;;;5069648;28;20179;-72
2022/09/11 07:18:55;;;;;;;6.00;2.00;;;26.10;90.70;;;;;;5069317;28;20183;-72
2022/09/11 07:21:26;;;;;;;4.93;1.98;;;26.20;90.70;;;;;;5051588;28;20277;-72
2022/09/11 07:23:56;;;;;;;5.43;2.13;;;26.40;90.60;;;;;;5068966;28;20266;-72
2022/09/11 07:26:27;;;;;;;5.75;2.53;;;26.50;91.50;;;;;;5067265;28;20179;-71
2022/09/11 07:28:54;;;;;;;4.85;2.60;;;26.70;93.90;;;;;;5050130;28;20701;-72
2022/09/11 07:31:29;;;;;;;5.07;2.80;;;26.80;94.40;;;;;;5066459;28;20182;-72
2022/09/11 07:33:56;;;;;;;9.95;3.00;;;26.80;95.40;;;;;;5070136;28;20175;-72
2022/09/11 07:36:29;;;;;;;7.05;3.20;;;27.00;96.10;;;;;;5052693;28;20186;-72
2022/09/11 07:38:59;;;;;;;7.53;3.47;;;27.10;96.80;;;;;;5055395;28;20216;-71
2022/09/11 07:41:28;;;;;;;5.03;3.00;;;27.20;96.80;;;;;;5080368;28;20273;-72
2022/09/11 07:44:02;;;;;;;6.90;3.80;;;27.30;95.80;;;;;;5063211;28;20278;-72
2022/09/11 07:46:29;;;;;;;4.38;3.10;;;27.30;96.20;;;;;;5069684;28;20654;-72
2022/09/11 07:48:56;;;;;;;9.38;3.25;;;27.30;96.00;;;;;;5069422;28;20628;-71
2022/09/11 07:51:25;;;;;;;5.00;2.95;;;27.30;96.60;;;;;;5053423;28;20273;-71
2022/09/11 07:53:53;;;;;;;5.85;2.78;;;27.30;96.00;;;;;;5071451;28;20671;-72
2022/09/11 07:56:25;;;;;;;6.75;3.08;;;27.40;95.70;;;;;;5071571;28;20201;-71
2022/09/11 07:58:54;;;;;;;6.00;2.78;;;27.50;94.70;;;;;;5070891;28;20175;-72
2022/09/11 08:01:25;;;;;;;3.13;2.45;;;27.50;94.10;;;;;;5062601;28;20178;-72
2022/09/11 08:03:57;;;;;;;4.18;2.58;;;27.50;93.70;;;;;;5052186;28;20265;-72
2022/09/11 08:06:26;;;;;;;7.47;3.50;;;27.60;93.30;;;;;;5069573;28;20258;-72
2022/09/11 08:08:55;;;;;;;5.97;3.47;;;27.70;94.60;;;;;;5069170;28;20183;-72
2022/09/11 08:11:24;;;;;;;7.32;3.83;;;27.90;94.90;;;;;;5069464;28;20632;-72
2022/09/11 08:13:53;;;;;;;13.25;4.82;;;28.00;98.00;;;;;;5069624;28;20648;-72
2022/09/11 08:16:23;;;;;;;9.65;4.00;;;28.20;98.70;;;;;;5084970;28;20190;-72
2022/09/11 08:18:52;;;;;;;7.50;3.70;;;28.40;98.70;;;;;;5052680;28;20194;-72
2022/09/11 08:21:20;;;;;;;6.40;3.35;;;28.40;98.20;;;;;;5069654;28;20183;-72
2022/09/11 08:23:47;;;;;;;14.02;4.57;;;28.40;96.70;;;;;;5069621;28;20187;-72
2022/09/11 08:26:25;;;;;;;10.52;4.40;;;28.70;99.70;;;;;;5069413;28;20175;-72
2022/09/11 08:28:55;;;;;;;9.63;4.10;;;28.70;99.90;;;;;;5068789;28;20178;-72
2022/09/11 08:31:27;;;;;;;16.65;4.47;;;28.80;99.90;;;;;;5064398;28;20198;-72
2022/09/11 08:33:59;;;;;;;10.05;4.60;;;28.90;99.90;;;;;;5066015;28;20190;-71
2022/09/11 08:36:26;;;;;;;10.15;4.50;;;29.10;99.90;;;;;;5069161;28;20783;-72
2022/09/11 08:38:54;;;;;;;8.82;3.90;;;29.10;99.90;;;;;;5069840;28;20200;-72
2022/09/11 08:41:52;;;;;;;12.18;4.03;;;29.10;99.90;;;;;;5070467;28;20171;-72
2022/09/11 08:44:33;;;;;;;5.90;3.72;;;29.10;99.90;;;;;;5068188;28;20656;-72
2022/09/11 08:47:11;;;;;;;7.20;3.92;;;29.30;99.90;;;;;;5051762;28;20615;-71
2022/09/11 08:49:46;;;;;;;11.82;4.45;;;29.30;99.90;;;;;;5068409;28;20174;-72
2022/09/11 08:52:15;;;;;;;13.63;4.45;;;29.30;99.90;;;;;;5070402;28;20372;-72
2022/09/11 08:54:46;;;;;;;4.53;3.67;;;29.40;99.90;;;;;;5052270;28;20182;-72
2022/09/11 08:57:48;;;;;;;8.38;4.03;;;29.40;99.90;;;;;;5068605;28;20178;-72
2022/09/11 09:00:28;;;;;;;9.15;4.38;;;29.50;99.90;;;;;;5069572;28;20182;-72
2022/09/11 09:03:37;;;;;;;6.88;3.92;;;29.50;99.90;;;;;;5063095;28;20190;-72
2022/09/11 09:06:20;;;;;;;9.13;3.88;;;29.60;99.90;;;;;;5055089;28;20188;-72
2022/09/11 09:09:11;;;;;;;8.88;3.95;;;29.80;99.90;;;;;;5071016;28;20718;-72
2022/09/11 09:12:24;;;;;;;5.57;3.80;;;29.90;99.90;;;;;;5060260;28;20572;-72
2022/09/11 09:15:19;;;;;;;8.48;3.78;;;30.00;99.90;;;;;;5071766;28;20202;-72
2022/09/11 09:18:24;;;;;;;12.15;4.20;;;30.10;99.90;;;;;;5079470;28;20238;-71
2022/09/11 09:21:06;;;;;;;6.20;3.50;;;30.40;99.90;;;;;;5069332;28;20277;-71
2022/09/11 09:23:52;;;;;;;11.90;4.03;;;30.40;99.90;;;;;;5050047;28;20252;-71
2022/09/11 09:26:21;;;;;;;9.25;3.97;;;30.50;99.90;;;;;;5068056;28;20188;-72
2022/09/11 09:28:53;;;;;;;9.85;3.75;;;30.60;99.90;;;;;;5060001;28;20194;-71
2022/09/11 09:31:28;;;;;;;7.25;3.55;;;30.80;99.90;;;;;;5071239;28;20274;-72
2022/09/11 09:34:16;;;;;;;8.05;3.72;;;30.80;99.90;;;;;;5046136;28;20803;-71
2022/09/11 09:37:12;;;;;;;6.38;3.58;;;31.00;99.90;;;;;;5046540;28;20195;-70
2022/09/11 09:39:39;;;;;;;11.63;3.90;;;31.20;99.90;;;;;;5062980;28;20191;-71
2022/09/11 09:42:52;;;;;;;7.78;4.18;;;31.30;99.90;;;;;;5064544;28;20183;-72
2022/09/11 09:45:42;;;;;;;9.27;3.88;;;31.60;99.90;;;;;;5050159;28;20288;-72
2022/09/11 09:48:10;;;;;;;8.57;4.18;;;32.00;99.90;;;;;;5055937;28;20187;-71
2022/09/11 09:50:45;;;;;;;5.05;3.80;;;32.20;99.90;;;;;;5047546;28;20186;-72
2022/09/11 09:53:40;;;;;;;7.25;3.53;;;33.30;99.90;;;;;;5054662;28;20220;-72
2022/09/11 09:56:09;;;;;;;5.78;3.65;;;35.60;99.90;;;;;;5044544;28;20628;-72
2022/09/11 09:59:17;;;;;;;7.05;3.83;;;36.60;98.90;;;;;;5068670;28;20202;-71
2022/09/11 10:01:50;;;;;;;10.45;3.70;;;35.40;98.80;;;;;;5047345;28;20220;-72
2022/09/11 10:04:24;;;;;;;7.25;4.00;;;34.50;99.60;;;;;;5062753;28;20192;-72
2022/09/11 10:07:12;;;;;;;8.43;3.90;;;33.80;99.90;;;;;;5050736;28;20190;-72
2022/09/11 10:09:50;;;;;;;6.53;3.80;;;33.30;99.90;;;;;;5059774;28;20277;-72
2022/09/11 10:12:27;;;;;;;4.55;3.45;;;33.00;99.90;;;;;;5070558;28;20224;-71
2022/09/11 10:15:01;;;;;;;8.68;3.90;;;33.00;99.90;;;;;;5059747;28;20170;-71
2022/09/11 10:17:32;;;;;;;7.45;3.67;;;33.00;99.90;;;;;;5070895;28;20242;-71
2022/09/11 10:20:25;;;;;;;7.15;4.03;;;33.00;99.90;;;;;;5074308;28;20187;-72
2022/09/11 10:22:55;;;;;;;15.15;3.90;;;33.30;99.90;;;;;;5043039;28;20275;-74
2022/09/11 10:25:28;;;;;;;8.27;3.75;;;33.60;99.90;;;;;;5049819;28;20206;-73
2022/09/11 10:28:31;;;;;;;7.03;4.05;;;33.60;99.90;;;;;;5059190;28;20304;-74
2022/09/11 10:31:02;;;;;;;12.43;4.05;;;33.10;99.90;;;;;;5082065;28;20214;-73
2022/09/11 10:33:57;;;;;;;10.43;4.50;;;32.80;99.90;;;;;;5068850;28;20218;-74
2022/09/11 10:36:27;;;;;;;7.32;3.80;;;32.10;99.90;;;;;;5058902;28;20183;-74
2022/09/11 10:39:00;;;;;;;9.30;3.88;;;32.00;99.90;;;;;;5063491;28;20191;-73
2022/09/11 10:41:33;;;;;;;11.52;4.15;;;31.90;99.90;;;;;;5063596;28;20717;-74
2022/09/11 10:44:14;;;;;;;7.30;3.80;;;31.90;99.90;;;;;;5069250;28;20701;-73
2022/09/11 10:46:44;;;;;;;8.73;4.00;;;31.90;99.90;;;;;;5059623;28;20191;-73
2022/09/11 10:49:23;;;;;;;6.68;3.60;;;31.80;99.90;;;;;;5056086;28;20278;-73
2022/09/11 10:52:21;;;;;;;12.43;3.75;;;31.70;99.90;;;;;;5076038;28;20652;-73
2022/09/11 10:55:14;;;;;;;7.78;3.80;;;31.80;99.90;;;;;;5063043;28;20224;-73
2022/09/11 10:57:55;;;;;;;6.97;3.70;;;31.90;99.90;;;;;;5058725;28;20231;-73
2022/09/11 11:00:29;;;;;;;6.03;3.60;;;31.90;99.90;;;;;;5062296;28;20590;-72
2022/09/11 11:03:08;;;;;;;5.45;3.50;;;31.80;99.90;;;;;;5067249;28;20209;-72
2022/09/11 11:06:06;;;;;;;13.45;3.72;;;31.90;99.90;;;;;;5067932;28;20238;-72
2022/09/11 11:09:09;;;;;;;9.50;3.65;;;31.90;99.90;;;;;;5046599;28;20317;-72
2022/09/11 11:12:17;;;;;;;8.93;3.95;;;31.70;99.90;;;;;;5047211;28;20221;-72
2022/09/11 11:15:12;;;;;;;6.97;3.50;;;31.70;99.90;;;;;;5056228;28;20194;-72
2022/09/11 11:17:53;;;;;;;8.30;3.70;;;31.80;99.90;;;;;;5051424;28;20830;-72
2022/09/11 11:20:38;;;;;;;8.55;3.72;;;31.80;99.90;;;;;;5052978;28;20243;-71
2022/09/11 11:23:49;;;;;;;7.03;3.80;;;31.90;99.90;;;;;;5068430;28;20189;-72
2022/09/11 11:26:51;;;;;;;7.50;3.42;;;31.80;99.90;;;;;;5075064;28;20187;-72
2022/09/11 11:30:01;;;;;;;9.27;3.58;;;31.90;99.90;;;;;;5078140;28;20200;-73
2022/09/11 11:33:04;;;;;;;5.65;3.30;;;31.90;99.90;;;;;;5055390;28;20230;-72
2022/09/11 11:36:11;;;;;;;8.23;3.50;;;31.80;99.90;;;;;;5073777;28;20194;-72
2022/09/11 11:38:45;;;;;;;7.07;3.50;;;31.80;99.90;;;;;;5064577;28;20210;-72
2022/09/11 11:41:43;;;;;;;6.30;2.97;;;31.80;99.90;;;;;;5070319;28;20650;-73
2022/09/11 11:44:28;;;;;;;8.55;3.72;;;31.60;99.90;;;;;;5074805;28;20202;-72
2022/09/11 11:47:03;;;;;;;7.07;3.33;;;31.70;99.90;;;;;;5059527;28;20194;-73
2022/09/11 11:49:49;;;;;;;11.68;3.60;;;31.60;99.90;;;;;;5070492;28;20710;-72
2022/09/11 11:52:35;;;;;;;7.47;3.55;;;31.60;99.90;;;;;;5071920;28;20306;-72
2022/09/11 11:55:13;;;;;;;6.68;3.45;;;31.70;99.90;;;;;;5068623;28;20191;-72
2022/09/11 11:57:54;;;;;;;7.30;3.53;;;31.70;99.90;;;;;;5073649;28;20643;-72
2022/09/11 12:00:21;;;;;;;10.30;3.70;;;31.70;99.90;;;;;;5051838;28;20648;-73
2022/09/11 12:03:02;;;;;;;7.72;3.40;;;31.70;99.90;;;;;;5071896;28;20195;-72
2022/09/11 12:05:38;;;;;;;7.45;3.90;;;31.60;99.90;;;;;;5051666;28;20183;-73
2022/09/11 12:08:14;;;;;;;13.82;3.45;;;31.70;99.90;;;;;;5058916;28;20191;-72
2022/09/11 12:10:55;;;;;;;7.47;3.33;;;31.60;99.90;;;;;;5062073;28;20186;-72
2022/09/11 12:13:32;;;;;;;6.75;3.28;;;31.60;99.90;;;;;;5065809;28;20207;-72
2022/09/11 12:16:27;;;;;;;10.43;3.40;;;31.50;99.90;;;;;;5079203;28;20643;-72
2022/09/11 12:19:03;;;;;;;6.38;3.30;;;31.50;99.90;;;;;;5068925;28;20187;-73
2022/09/11 12:21:30;;;;;;;8.75;3.08;;;31.40;99.90;;;;;;5075513;28;20182;-72
2022/09/11 12:23:56;;;;;;;5.43;3.38;;;31.50;99.90;;;;;;5065951;28;20556;-73
2022/09/11 12:26:30;;;;;;;8.50;3.33;;;31.50;99.90;;;;;;5052746;28;20182;-73
2022/09/11 12:29:32;;;;;;;8.48;3.60;;;31.30;99.90;;;;;;5078109;28;20197;-72
2022/09/11 12:31:59;;;;;;;7.70;3.60;;;31.40;99.90;;;;;;5069208;28;20213;-74
2022/09/11 12:34:44;;;;;;;9.00;3.60;;;31.40;99.90;;;;;;5064545;28;20183;-72
2022/09/11 12:37:38;;;;;;;6.78;3.30;;;31.50;99.90;;;;;;5069483;28;21867;-72
2022/09/11 12:40:17;;;;;;;8.50;3.25;;;31.50;99.90;;;;;;5060139;28;20195;-72
2022/09/11 12:43:02;;;;;;;8.02;3.40;;;31.40;99.90;;;;;;5074729;28;20660;-73
2022/09/11 12:45:37;;;;;;;7.30;3.33;;;31.30;99.90;;;;;;5073382;28;20216;-72
2022/09/11 12:48:20;;;;;;;4.70;2.85;;;31.20;99.90;;;;;;5050413;28;20182;-72
2022/09/11 12:50:55;;;;;;;10.48;3.40;;;31.30;99.90;;;;;;5062223;28;20261;-73
2022/09/11 12:53:32;;;;;;;6.00;3.15;;;31.40;99.90;;;;;;5049484;28;20218;-72
2022/09/11 12:56:05;;;;;;;6.72;2.97;;;31.50;99.90;;;;;;5065795;28;20182;-73
2022/09/11 12:58:46;;;;;;;8.20;3.42;;;31.30;99.90;;;;;;5064947;28;20191;-72
2022/09/11 13:01:40;;;;;;;6.25;3.15;;;31.30;99.90;;;;;;5073145;28;20197;-72
2022/09/11 13:04:10;;;;;;;7.47;3.15;;;31.30;99.90;;;;;;5070444;28;20654;-73
2022/09/11 13:06:50;;;;;;;6.63;3.05;;;31.40;99.90;;;;;;5064013;28;20209;-72
2022/09/11 13:09:37;;;;;;;8.13;3.10;;;31.30;99.90;;;;;;5068867;28;20203;-72
2022/09/11 13:12:24;;;;;;;13.82;3.67;;;31.30;99.90;;;;;;5076763;28;20764;-73
2022/09/11 13:14:57;;;;;;;6.13;3.00;;;31.30;99.90;;;;;;5068168;28;20182;-72
2022/09/11 13:17:33;;;;;;;8.93;3.15;;;31.30;99.90;;;;;;5051332;28;20183;-72
2022/09/11 13:20:14;;;;;;;9.15;3.25;;;31.30;99.90;;;;;;5064894;28;20185;-72
2022/09/11 13:22:41;;;;;;;6.20;3.47;;;31.30;99.90;;;;;;5070942;28;20292;-73
2022/09/11 13:25:17;;;;;;;7.88;2.97;;;31.30;99.90;;;;;;5072183;28;20205;-72
2022/09/11 13:27:53;;;;;;;10.27;3.22;;;31.20;99.90;;;;;;5062215;28;20235;-72
2022/09/11 13:30:23;;;;;;;11.02;3.35;;;31.20;99.90;;;;;;5070555;28;20182;-72
2022/09/11 13:33:07;;;;;;;6.75;3.17;;;31.20;99.90;;;;;;5067391;28;20261;-72